createdAt,value
2019-04-28T00:01:38.579Z,45.13
2019-04-28T00:04:09.121Z,44.10
2019-04-28T00:06:39.448Z,49.13
2019-04-28T00:09:11.588Z,41.17
2019-04-28T00:11:41.872Z,43.83
2019-04-28T00:14:12.690Z,48.60
2019-04-28T00:16:43.364Z,43.47
2019-04-28T00:19:16.988Z,48.10
2019-04-28T00:21:57.234Z,49.80
2019-04-28T00:24:46.558Z,47.97
2019-04-28T00:27:18.346Z,43.20
2019-04-28T00:29:49.574Z,40.27
2019-04-28T00:32:22.177Z,42.33
2019-04-28T00:34:52.530Z,46.97
2019-04-28T00:37:32.002Z,45.90
2019-04-28T00:40:02.430Z,40.03
2019-04-28T00:42:32.746Z,45.77
2019-04-28T00:45:03.328Z,42.83
2019-04-28T00:47:35.263Z,44.43
2019-04-28T00:50:11.751Z,42.87
2019-04-28T00:52:42.539Z,46.47
2019-04-28T00:55:13.035Z,42.37
2019-04-28T00:57:43.424Z,47.50
2019-04-28T01:00:16.816Z,45.67
2019-04-28T01:02:47.458Z,45.20
2019-04-28T01:05:21.202Z,41.07
2019-04-28T01:07:54.384Z,46.63
2019-04-28T01:10:30.805Z,47.00
2019-04-28T01:13:02.314Z,49.27
2019-04-28T01:15:42.865Z,45.07
2019-04-28T01:18:32.920Z,43.37
2019-04-28T01:21:03.638Z,43.27
2019-04-28T01:23:33.963Z,43.90
2019-04-28T01:26:04.493Z,44.23
2019-04-28T01:28:34.809Z,43.97
2019-04-28T01:31:36.452Z,45.63
2019-04-28T01:34:15.837Z,47.20
2019-04-28T01:36:46.206Z,43.53
2019-04-28T01:39:16.519Z,49.37
2019-04-28T01:41:46.857Z,41.67
2019-04-28T01:44:19.831Z,49.97
2019-04-28T01:46:52.526Z,43.50
2019-04-28T01:49:22.872Z,42.80
2019-04-28T01:52:00.889Z,46.27
2019-04-28T01:54:32.536Z,45.47
2019-04-28T01:57:03.329Z,44.77
2019-04-28T01:59:35.460Z,46.80
2019-04-28T02:02:10.007Z,46.73
2019-04-28T02:04:40.451Z,43.80
2019-04-28T02:07:11.181Z,45.27
2019-04-28T02:09:41.968Z,44.50
2019-04-28T02:12:12.404Z,40.70
2019-04-28T02:14:42.714Z,43.23
2019-04-28T02:17:13.075Z,47.73
2019-04-28T02:19:43.385Z,44.03
2019-04-28T02:22:29.920Z,42.17
2019-04-28T02:25:02.221Z,44.47
2019-04-28T02:27:36.918Z,39.07
2019-04-28T02:30:11.386Z,45.87
2019-04-28T02:32:41.919Z,42.10
2019-04-28T02:35:12.327Z,42.10
2019-04-28T02:37:42.976Z,38.43
2019-04-28T02:40:13.274Z,46.60
2019-04-28T02:42:43.765Z,47.90
2019-04-28T02:45:21.833Z,43.00
2019-04-28T02:47:53.151Z,43.57
2019-04-28T02:50:35.419Z,41.27
2019-04-28T02:53:17.799Z,52.73
2019-04-28T02:55:48.209Z,42.17
2019-04-28T02:58:22.474Z,41.17
2019-04-28T03:01:02.822Z,45.90
2019-04-28T03:03:42.961Z,39.00
2019-04-28T03:06:14.231Z,44.13
2019-04-28T03:08:45.018Z,44.70
2019-04-28T03:11:15.337Z,43.40
2019-04-28T03:13:45.684Z,47.17
2019-04-28T03:16:16.239Z,39.60
2019-04-28T03:18:51.421Z,35.90
2019-04-28T03:21:22.001Z,47.03
2019-04-28T03:23:52.344Z,41.30
2019-04-28T03:26:33.218Z,43.90
2019-04-28T03:29:10.871Z,40.87
2019-04-28T03:32:22.048Z,38.27
2019-04-28T03:34:45.444Z,45.37
2019-04-28T03:37:25.141Z,39.30
2019-04-28T03:39:55.480Z,42.03
2019-04-28T03:42:25.809Z,40.33
2019-04-28T03:45:00.997Z,40.53
2019-04-28T03:47:32.273Z,45.83
2019-04-28T03:50:02.557Z,41.97
2019-04-28T03:52:32.874Z,37.97
2019-04-28T03:55:05.798Z,38.60
2019-04-28T03:57:36.261Z,43.23
2019-04-28T04:00:10.852Z,37.20
2019-04-28T04:02:41.231Z,43.63
2019-04-28T04:05:12.965Z,42.73
2019-04-28T04:07:44.116Z,36.70
2019-04-28T04:10:50.152Z,42.57
2019-04-28T04:13:33.067Z,38.57
2019-04-28T04:16:23.564Z,43.13
2019-04-28T04:18:55.384Z,40.53
2019-04-28T04:21:25.670Z,37.17
2019-04-28T04:23:56.343Z,35.60
2019-04-28T04:26:26.958Z,37.70
2019-04-28T04:29:00.709Z,41.80
2019-04-28T04:31:31.839Z,38.17
2019-04-28T04:34:03.265Z,36.43
2019-04-28T04:36:35.063Z,40.33
2019-04-28T04:39:10.808Z,38.83
2019-04-28T04:41:43.783Z,33.87
2019-04-28T04:44:15.424Z,30.20
2019-04-28T04:46:45.778Z,30.60
2019-04-28T04:49:16.106Z,32.73
2019-04-28T04:51:46.373Z,33.43
2019-04-28T04:54:20.441Z,34.97
2019-04-28T04:56:55.029Z,34.03
2019-04-28T04:59:30.055Z,34.15
2019-04-28T05:02:29.305Z,33.45
2019-04-28T05:05:11.802Z,37.55
2019-04-28T05:07:42.932Z,31.25
2019-04-28T05:10:13.716Z,32.48
2019-04-28T05:12:44.030Z,31.35
2019-04-28T05:15:14.637Z,30.17
2019-04-28T05:17:45.427Z,31.70
2019-04-28T05:20:15.780Z,31.15
2019-04-28T05:22:54.598Z,28.07
2019-04-28T05:25:32.589Z,25.75
2019-04-28T05:28:03.466Z,24.70
2019-04-28T05:30:34.942Z,28.55
2019-04-28T05:33:07.718Z,21.90
2019-04-28T05:35:40.193Z,26.02
2019-04-28T05:38:10.530Z,28.47
2019-04-28T05:40:42.075Z,18.50
2019-04-28T05:43:12.548Z,24.50
2019-04-28T05:45:45.106Z,22.73
2019-04-28T05:48:20.218Z,18.90
2019-04-28T05:50:59.939Z,17.85
2019-04-28T05:53:53.804Z,17.15
2019-04-28T05:56:36.038Z,16.12
2019-04-28T05:59:11.016Z,18.55
2019-04-28T06:02:00.732Z,15.15
2019-04-28T06:04:31.450Z,25.27
2019-04-28T06:07:09.974Z,18.07
2019-04-28T06:09:45.766Z,19.52
2019-04-28T06:12:16.959Z,15.85
2019-04-28T06:14:50.238Z,11.85
2019-04-28T06:17:20.826Z,19.17
2019-04-28T06:19:51.186Z,18.23
2019-04-28T06:22:23.843Z,16.00
2019-04-28T06:24:54.198Z,13.13
2019-04-28T06:27:24.598Z,16.70
2019-04-28T06:29:55.912Z,12.63
2019-04-28T06:32:27.043Z,11.12
2019-04-28T06:34:57.213Z,10.85
2019-04-28T06:37:27.709Z,17.45
2019-04-28T06:39:58.150Z,12.98
2019-04-28T06:42:28.486Z,15.53
2019-04-28T06:44:59.135Z,18.40
2019-04-28T06:47:30.379Z,13.40
2019-04-28T06:50:00.739Z,12.82
2019-04-28T06:52:33.309Z,13.05
2019-04-28T06:55:03.788Z,21.90
2019-04-28T06:57:34.180Z,19.73
2019-04-28T07:00:08.708Z,10.90
2019-04-28T07:02:39.054Z,11.15
2019-04-28T07:05:12.001Z,8.85
2019-04-28T07:07:44.940Z,11.97
2019-04-28T07:10:15.271Z,13.25
2019-04-28T07:12:45.680Z,16.23
2019-04-28T07:15:17.466Z,16.37
2019-04-28T07:17:47.877Z,11.22
2019-04-28T07:20:35.378Z,17.40
2019-04-28T07:23:05.759Z,11.08
2019-04-28T07:25:36.438Z,12.03
2019-04-28T07:28:07.251Z,12.68
2019-04-28T07:30:39.725Z,10.48
2019-04-28T07:33:10.750Z,11.50
2019-04-28T07:35:41.217Z,11.73
2019-04-28T07:38:11.544Z,9.50
2019-04-28T07:40:44.292Z,11.28
2019-04-28T07:43:14.703Z,13.90
2019-04-28T07:45:46.811Z,21.68
2019-04-28T07:48:18.332Z,13.98
2019-04-28T07:50:50.300Z,12.45
2019-04-28T07:53:39.706Z,8.03
2019-04-28T07:56:10.256Z,15.83
2019-04-28T07:58:42.776Z,15.18
2019-04-28T08:01:13.557Z,27.02
2019-04-28T08:03:49.550Z,13.38
2019-04-28T08:06:16.316Z,14.60
2019-04-28T08:08:46.732Z,13.83
2019-04-28T08:11:17.531Z,11.73
2019-04-28T08:13:48.050Z,11.48
2019-04-28T08:16:18.402Z,15.00
2019-04-28T08:18:48.860Z,9.93
2019-04-28T08:21:19.315Z,14.98
2019-04-28T08:23:49.730Z,15.50
2019-04-28T08:26:20.186Z,7.58
2019-04-28T08:28:50.512Z,11.40
2019-04-28T08:31:24.180Z,13.55
2019-04-28T08:34:08.084Z,10.88
2019-04-28T08:36:40.822Z,9.95
2019-04-28T08:39:11.763Z,11.35
2019-04-28T08:41:45.257Z,9.90
2019-04-28T08:44:18.692Z,10.90
2019-04-28T08:46:49.402Z,7.75
2019-04-28T08:49:21.928Z,8.05
2019-04-28T08:51:52.258Z,11.22
2019-04-28T08:54:22.667Z,7.45
2019-04-28T08:56:53.184Z,8.50
2019-04-28T08:59:23.599Z,11.50
2019-04-28T09:01:55.524Z,8.30
2019-04-28T09:04:27.853Z,11.50
2019-04-28T09:07:02.314Z,10.70
2019-04-28T09:09:32.650Z,10.18
2019-04-28T09:12:04.216Z,10.43
2019-04-28T09:14:34.656Z,14.50
2019-04-28T09:17:08.671Z,8.78
2019-04-28T09:19:42.524Z,10.10
2019-04-28T09:22:13.150Z,11.63
2019-04-28T09:24:43.505Z,8.65
2019-04-28T09:27:15.559Z,9.50
2019-04-28T09:29:46.097Z,8.48
2019-04-28T09:32:16.469Z,11.60
2019-04-28T09:34:48.847Z,9.45
2019-04-28T09:37:20.274Z,9.28
2019-04-28T09:39:57.914Z,8.40
2019-04-28T09:42:48.155Z,9.05
2019-04-28T09:45:29.739Z,12.58
2019-04-28T09:48:05.848Z,11.57
2019-04-28T09:50:36.285Z,9.43
2019-04-28T09:53:09.061Z,11.03
2019-04-28T09:55:43.116Z,10.25
2019-04-28T09:58:13.915Z,15.70
2019-04-28T10:00:44.301Z,12.37
2019-04-28T10:03:14.661Z,15.75
2019-04-28T10:05:45.378Z,10.38
2019-04-28T10:08:17.630Z,10.72
2019-04-28T10:10:49.621Z,10.40
2019-04-28T10:13:19.970Z,8.58
2019-04-28T10:15:52.063Z,12.30
2019-04-28T10:18:23.833Z,9.28
2019-04-28T10:21:04.600Z,11.68
2019-04-28T10:23:36.547Z,7.78
2019-04-28T10:26:09.719Z,11.78
2019-04-28T10:28:40.225Z,6.78
2019-04-28T10:31:13.330Z,9.00
2019-04-28T10:33:45.632Z,7.15
2019-04-28T10:36:19.222Z,7.80
2019-04-28T10:38:51.181Z,9.63
2019-04-28T10:41:33.244Z,10.58
2019-04-28T10:44:03.785Z,7.05
2019-04-28T10:46:36.657Z,14.23
2019-04-28T10:49:08.628Z,6.92
2019-04-28T10:51:38.958Z,11.78
2019-04-28T10:54:10.392Z,7.97
2019-04-28T10:56:40.769Z,13.72
2019-04-28T10:59:12.354Z,9.68
2019-04-28T11:01:42.681Z,8.30
2019-04-28T11:04:34.021Z,8.05
2019-04-28T11:07:05.092Z,8.98
2019-04-28T11:09:43.098Z,12.00
2019-04-28T11:12:22.696Z,7.42
2019-04-28T11:14:53.788Z,12.20
2019-04-28T11:17:25.772Z,13.15
2019-04-28T11:19:56.100Z,9.75
2019-04-28T11:22:29.182Z,13.88
2019-04-28T11:24:59.538Z,8.10
2019-04-28T11:27:30.114Z,8.33
2019-04-28T11:30:00.502Z,12.90
2019-04-28T11:32:34.286Z,8.10
2019-04-28T11:35:21.983Z,10.30
2019-04-28T11:37:52.906Z,26.33
2019-04-28T11:40:23.973Z,11.53
2019-04-28T11:42:54.378Z,15.08
2019-04-28T11:45:25.822Z,7.00
2019-04-28T11:47:56.240Z,6.33
2019-04-28T11:50:26.991Z,7.80
2019-04-28T11:53:04.434Z,8.33
2019-04-28T11:55:36.823Z,14.80
2019-04-28T11:58:11.448Z,8.15
2019-04-28T12:00:41.899Z,9.00
2019-04-28T12:03:14.606Z,14.53
2019-04-28T12:05:47.076Z,8.73
2019-04-28T12:08:17.779Z,8.23
2019-04-28T12:10:54.318Z,8.58
2019-04-28T12:13:38.959Z,10.43
2019-04-28T12:16:29.848Z,9.38
2019-04-28T12:19:27.059Z,9.28
2019-04-28T12:21:57.423Z,12.05
2019-04-28T12:24:28.390Z,8.15
2019-04-28T12:27:00.881Z,13.83
2019-04-28T12:29:31.234Z,6.80
2019-04-28T12:32:02.653Z,5.92
2019-04-28T12:34:34.097Z,11.15
2019-04-28T12:37:05.000Z,11.38
2019-04-28T12:39:36.231Z,7.97
2019-04-28T12:42:06.653Z,5.42
2019-04-28T12:44:36.977Z,6.40
2019-04-28T12:47:17.212Z,9.25
2019-04-28T12:49:55.317Z,7.95
2019-04-28T12:52:25.940Z,10.32
2019-04-28T12:54:56.358Z,14.07
2019-04-28T12:57:28.010Z,7.67
2019-04-28T13:00:07.897Z,5.28
2019-04-28T13:02:56.288Z,10.82
2019-04-28T13:05:26.651Z,9.70
2019-04-28T13:08:00.204Z,11.57
2019-04-28T13:10:30.609Z,13.98
2019-04-28T13:13:04.023Z,6.65
2019-04-28T13:15:36.112Z,8.33
2019-04-28T13:18:07.309Z,15.30
2019-04-28T13:20:37.891Z,9.28
2019-04-28T13:23:08.244Z,12.90
2019-04-28T13:25:39.394Z,9.35
2019-04-28T13:28:09.977Z,6.87
2019-04-28T13:30:42.301Z,10.00
2019-04-28T13:33:13.016Z,53.30
2019-04-28T13:35:43.662Z,9.75
2019-04-28T13:38:14.011Z,15.45
2019-04-28T13:40:44.316Z,13.80
2019-04-28T13:43:15.415Z,9.60
2019-04-28T13:45:45.757Z,10.00
2019-04-28T13:48:16.508Z,11.45
2019-04-28T13:50:49.641Z,18.85
2019-04-28T13:53:20.861Z,13.95
2019-04-28T13:56:10.063Z,6.92
2019-04-28T13:58:44.881Z,11.55
2019-04-28T14:01:36.317Z,8.43
2019-04-28T14:04:25.776Z,14.07
2019-04-28T14:07:02.891Z,10.03
2019-04-28T14:09:33.237Z,11.65
2019-04-28T14:12:04.800Z,6.65
2019-04-28T14:14:35.111Z,6.97
2019-04-28T14:17:05.424Z,6.80
2019-04-28T14:19:35.692Z,6.20
2019-04-28T14:22:08.391Z,4.45
2019-04-28T14:24:40.112Z,4.65
2019-04-28T14:27:12.832Z,7.87
2019-04-28T14:29:43.385Z,6.03
2019-04-28T14:32:14.681Z,6.85
2019-04-28T14:34:46.501Z,11.22
2019-04-28T14:37:16.849Z,7.97
2019-04-28T14:39:49.629Z,4.17
2019-04-28T14:42:22.737Z,13.50
2019-04-28T14:44:56.445Z,12.53
2019-04-28T14:47:26.805Z,2.55
2019-04-28T14:49:57.119Z,6.05
2019-04-28T14:52:27.453Z,7.85
2019-04-28T14:54:58.228Z,5.67
2019-04-28T14:57:28.851Z,5.15
2019-04-28T14:59:59.193Z,3.65
2019-04-28T15:02:53.679Z,5.72
2019-04-28T15:05:33.193Z,3.47
2019-04-28T15:08:22.802Z,3.20
2019-04-28T15:10:59.301Z,4.90
2019-04-28T15:13:31.616Z,8.93
2019-04-28T15:16:02.447Z,6.10
2019-04-28T15:18:33.211Z,5.92
2019-04-28T15:21:04.575Z,3.95
2019-04-28T15:23:36.258Z,5.55
2019-04-28T15:26:06.582Z,3.87
2019-04-28T15:28:37.363Z,5.65
2019-04-28T15:31:08.102Z,7.47
2019-04-28T15:33:38.440Z,9.10
2019-04-28T15:36:08.864Z,4.28
2019-04-28T15:38:39.277Z,4.47
2019-04-28T15:41:20.852Z,3.37
2019-04-28T15:43:42.194Z,5.65
2019-04-28T15:46:12.534Z,3.95
2019-04-28T15:48:42.875Z,3.90
2019-04-28T15:51:13.440Z,4.67
2019-04-28T15:53:52.118Z,2.02
2019-04-28T15:56:46.601Z,2.12
2019-04-28T15:59:17.894Z,2.08
2019-04-28T16:01:48.619Z,4.92
2019-04-28T16:04:19.250Z,3.72
2019-04-28T16:06:49.622Z,5.17
2019-04-28T16:09:23.068Z,5.12
2019-04-28T16:11:54.531Z,4.40
2019-04-28T16:14:25.089Z,4.08
2019-04-28T16:16:55.515Z,4.65
2019-04-28T16:19:26.232Z,4.12
2019-04-28T16:22:11.843Z,5.95
2019-04-28T16:24:44.981Z,5.60
2019-04-28T16:27:15.612Z,6.30
2019-04-28T16:29:45.776Z,6.25
2019-04-28T16:32:17.636Z,4.28
2019-04-28T16:34:47.959Z,7.20
2019-04-28T16:37:18.576Z,5.65
2019-04-28T16:39:50.524Z,6.03
2019-04-28T16:42:22.923Z,4.75
2019-04-28T16:44:54.245Z,3.83
2019-04-28T16:47:24.516Z,4.95
2019-04-28T16:49:57.642Z,3.25
2019-04-28T16:52:27.965Z,4.25
2019-04-28T16:55:15.097Z,3.10
2019-04-28T16:58:12.043Z,4.33
2019-04-28T17:01:07.114Z,4.37
2019-04-28T17:03:38.185Z,4.10
2019-04-28T17:06:08.461Z,3.62
2019-04-28T17:08:39.139Z,4.83
2019-04-28T17:11:10.889Z,3.58
2019-04-28T17:13:41.947Z,3.42
2019-04-28T17:16:12.273Z,8.65
2019-04-28T17:18:42.626Z,3.45
2019-04-28T17:21:12.939Z,2.08
2019-04-28T17:23:44.298Z,7.47
2019-04-28T17:26:14.679Z,5.03
2019-04-28T17:28:46.188Z,4.25
2019-04-28T17:31:17.268Z,3.80
2019-04-28T17:33:47.892Z,1.95
2019-04-28T17:36:18.257Z,3.87
2019-04-28T17:38:48.594Z,5.22
2019-04-28T17:41:19.259Z,5.05
2019-04-28T17:43:49.535Z,4.60
2019-04-28T17:46:20.793Z,4.20
2019-04-28T17:48:55.638Z,7.05
2019-04-28T17:51:28.511Z,4.00
2019-04-28T17:53:59.833Z,3.03
2019-04-28T17:56:30.626Z,2.83
2019-04-28T17:59:00.963Z,4.62
2019-04-28T18:01:59.091Z,3.77
2019-04-28T18:04:43.838Z,2.45
2019-04-28T18:07:19.350Z,4.33
2019-04-28T18:09:52.477Z,3.43
2019-04-28T18:12:26.887Z,10.27
2019-04-28T18:15:03.072Z,4.83
2019-04-28T18:17:57.261Z,4.20
2019-04-28T18:20:27.953Z,5.50
2019-04-28T18:22:59.814Z,6.50
2019-04-28T18:25:30.467Z,5.90
2019-04-28T18:28:01.108Z,3.57
2019-04-28T18:30:35.687Z,6.03
2019-04-28T18:33:43.110Z,6.40
2019-04-28T18:36:22.521Z,3.90
2019-04-28T18:39:06.958Z,2.80
2019-04-28T18:41:46.711Z,6.60
2019-04-28T18:44:19.658Z,7.80
2019-04-28T18:46:50.124Z,7.07
2019-04-28T18:49:20.408Z,4.67
2019-04-28T18:51:52.253Z,6.73
2019-04-28T18:54:22.592Z,3.77
2019-04-28T18:56:57.654Z,6.67
2019-04-28T18:59:28.059Z,5.10
2019-04-28T19:02:13.144Z,7.00
2019-04-28T19:04:43.446Z,3.30
2019-04-28T19:07:21.676Z,5.23
2019-04-28T19:10:16.966Z,6.83
2019-04-28T19:13:11.468Z,6.83
2019-04-28T19:15:59.988Z,4.87
2019-04-28T19:18:36.258Z,5.03
2019-04-28T19:21:08.497Z,6.27
2019-04-28T19:23:39.585Z,8.47
2019-04-28T19:26:09.872Z,6.50
2019-04-28T19:28:40.507Z,5.67
2019-04-28T19:31:13.046Z,7.47
2019-04-28T19:33:43.724Z,6.07
2019-04-28T19:36:16.118Z,6.00
2019-04-28T19:38:46.679Z,5.10
2019-04-28T19:41:17.366Z,3.60
2019-04-28T19:43:47.684Z,9.53
2019-04-28T19:46:19.529Z,10.27
2019-04-28T19:48:52.189Z,5.47
2019-04-28T19:51:31.751Z,5.27
2019-04-28T19:53:54.458Z,9.33
2019-04-28T19:56:39.625Z,4.20
2019-04-28T19:59:17.320Z,5.30
2019-04-28T20:01:47.871Z,6.07
2019-04-28T20:04:21.916Z,4.27
2019-04-28T20:06:53.302Z,6.30
2019-04-28T20:09:23.595Z,6.53
2019-04-28T20:11:53.893Z,5.30
2019-04-28T20:14:25.934Z,6.27
2019-04-28T20:16:56.603Z,11.00
2019-04-28T20:19:27.134Z,5.60
2019-04-28T20:22:00.202Z,7.13
2019-04-28T20:24:30.536Z,5.27
2019-04-28T20:27:00.831Z,4.23
2019-04-28T20:29:31.101Z,5.93
2019-04-28T20:32:01.658Z,6.87
2019-04-28T20:34:33.097Z,8.83
2019-04-28T20:37:12.956Z,8.63
2019-04-28T20:39:45.115Z,8.33
2019-04-28T20:42:33.220Z,6.20
2019-04-28T20:45:03.737Z,11.37
2019-04-28T20:47:37.138Z,9.70
2019-04-28T20:50:09.120Z,5.27
2019-04-28T20:52:39.411Z,6.30
2019-04-28T20:55:11.012Z,12.50
2019-04-28T20:57:41.677Z,3.87
2019-04-28T21:00:12.002Z,7.07
2019-04-28T21:02:42.533Z,9.83
2019-04-28T21:05:14.047Z,8.77
2019-04-28T21:07:45.172Z,6.93
2019-04-28T21:10:16.724Z,7.87
2019-04-28T21:12:47.099Z,10.50
2019-04-28T21:15:18.289Z,8.30
2019-04-28T21:17:48.716Z,7.63
2019-04-28T21:20:19.070Z,4.87
2019-04-28T21:22:49.386Z,10.20
2019-04-28T21:25:21.107Z,9.03
2019-04-28T21:27:54.628Z,9.27
2019-04-28T21:30:26.386Z,7.53
2019-04-28T21:32:56.847Z,5.50
2019-04-28T21:35:34.386Z,7.23
2019-04-28T21:38:04.686Z,9.90
2019-04-28T21:40:38.397Z,5.07
2019-04-28T21:43:18.163Z,7.30
2019-04-28T21:45:58.619Z,9.67
2019-04-28T21:48:36.458Z,7.00
2019-04-28T21:51:07.074Z,8.33
2019-04-28T21:53:37.407Z,6.93
2019-04-28T21:56:07.661Z,7.03
2019-04-28T21:58:38.033Z,7.90
2019-04-28T22:01:09.841Z,6.07
2019-04-28T22:03:40.131Z,5.07
2019-04-28T22:06:13.131Z,8.97
2019-04-28T22:08:44.023Z,5.10
2019-04-28T22:11:14.437Z,8.63
2019-04-28T22:13:46.140Z,8.50
2019-04-28T22:16:16.603Z,8.37
2019-04-28T22:18:46.945Z,7.77
2019-04-28T22:21:18.200Z,5.37
2019-04-28T22:24:07.116Z,5.27
2019-04-28T22:26:49.560Z,6.37
2019-04-28T22:29:19.892Z,9.27
2019-04-28T22:31:50.262Z,9.23
2019-04-28T22:34:20.598Z,9.63
2019-04-28T22:36:52.074Z,6.70
2019-04-28T22:39:22.417Z,6.63
2019-04-28T22:41:52.779Z,5.97
2019-04-28T22:44:25.923Z,7.50
2019-04-28T22:46:56.231Z,8.03
2019-04-28T22:49:28.493Z,6.10
2019-04-28T22:52:01.074Z,7.43
2019-04-28T22:54:53.698Z,8.07
2019-04-28T22:57:32.500Z,7.60
2019-04-28T23:00:03.590Z,7.47
2019-04-28T23:02:34.270Z,12.50
2019-04-28T23:05:07.460Z,8.07
2019-04-28T23:07:37.745Z,8.17
2019-04-28T23:10:09.747Z,6.43
2019-04-28T23:12:44.233Z,8.77
2019-04-28T23:15:14.718Z,6.20
2019-04-28T23:17:45.626Z,10.10
2019-04-28T23:20:16.572Z,7.90
2019-04-28T23:22:49.879Z,10.33
2019-04-28T23:25:20.167Z,7.50
2019-04-28T23:27:50.482Z,7.47
2019-04-28T23:30:45.163Z,6.93
2019-04-28T23:33:15.585Z,6.50
2019-04-28T23:35:45.919Z,6.80
2019-04-28T23:38:19.289Z,13.03
2019-04-28T23:41:08.127Z,9.27
2019-04-28T23:43:38.486Z,8.73
2019-04-28T23:46:08.785Z,7.00
2019-04-28T23:48:39.105Z,5.33
2019-04-28T23:51:17.384Z,10.50
2019-04-28T23:53:58.769Z,7.80
2019-04-28T23:56:29.109Z,9.53
2019-04-28T23:58:59.742Z,7.73
